sensor_id;sensor_type;location;lat;lon;timestamp;P1;durP1;ratioP1;P2;durP2;ratioP2
3407;SDS011;1717;50.240;8.406;2023-04-08T00:01:04;2.63;;;1.67;;
3407;SDS011;1717;50.240;8.406;2023-04-08T00:03:31;1.97;;;1.77;;
3407;SDS011;1717;50.240;8.406;2023-04-08T00:05:58;2.67;;;2.30;;
3407;SDS011;1717;50.240;8.406;2023-04-08T00:08:27;1.87;;;1.70;;
3407;SDS011;1717;50.240;8.406;2023-04-08T00:10:55;2.20;;;2.00;;
3407;SDS011;1717;50.240;8.406;2023-04-08T00:13:22;2.53;;;2.27;;
3407;SDS011;1717;50.240;8.406;2023-04-08T00:15:49;2.30;;;2.10;;
3407;SDS011;1717;50.240;8.406;2023-04-08T00:18:15;2.30;;;2.10;;
3407;SDS011;1717;50.240;8.406;2023-04-08T00:20:42;2.50;;;2.30;;
3407;SDS011;1717;50.240;8.406;2023-04-08T00:23:09;3.83;;;2.50;;
3407;SDS011;1717;50.240;8.406;2023-04-08T00:25:36;2.43;;;2.23;;
3407;SDS011;1717;50.240;8.406;2023-04-08T00:28:04;3.20;;;2.57;;
3407;SDS011;1717;50.240;8.406;2023-04-08T00:30:31;2.97;;;1.93;;
3407;SDS011;1717;50.240;8.406;2023-04-08T00:32:58;2.90;;;2.47;;
3407;SDS011;1717;50.240;8.406;2023-04-08T00:35:25;3.60;;;3.10;;
3407;SDS011;1717;50.240;8.406;2023-04-08T00:37:52;2.97;;;2.73;;
3407;SDS011;1717;50.240;8.406;2023-04-08T00:40:19;3.23;;;2.47;;
3407;SDS011;1717;50.240;8.406;2023-04-08T00:42:46;4.30;;;2.70;;
3407;SDS011;1717;50.240;8.406;2023-04-08T00:45:14;3.40;;;3.07;;
3407;SDS011;1717;50.240;8.406;2023-04-08T00:47:41;4.27;;;2.73;;
3407;SDS011;1717;50.240;8.406;2023-04-08T00:50:09;3.63;;;3.07;;
3407;SDS011;1717;50.240;8.406;2023-04-08T00:52:36;2.60;;;2.40;;
3407;SDS011;1717;50.240;8.406;2023-04-08T00:55:03;3.73;;;3.07;;
3407;SDS011;1717;50.240;8.406;2023-04-08T00:57:31;3.37;;;2.53;;
3407;SDS011;1717;50.240;8.406;2023-04-08T00:59:58;3.73;;;2.90;;
3407;SDS011;1717;50.240;8.406;2023-04-08T01:02:28;3.53;;;3.20;;
3407;SDS011;1717;50.240;8.406;2023-04-08T01:05:01;2.60;;;2.40;;
3407;SDS011;1717;50.240;8.406;2023-04-08T01:07:32;3.03;;;2.80;;
3407;SDS011;1717;50.240;8.406;2023-04-08T01:10:04;2.97;;;2.67;;
3407;SDS011;1717;50.240;8.406;2023-04-08T01:12:39;3.90;;;3.30;;
3407;SDS011;1717;50.240;8.406;2023-04-08T01:15:10;3.57;;;3.27;;
3407;SDS011;1717;50.240;8.406;2023-04-08T01:17:38;2.77;;;2.57;;
3407;SDS011;1717;50.240;8.406;2023-04-08T01:20:07;3.10;;;2.80;;
3407;SDS011;1717;50.240;8.406;2023-04-08T01:22:37;3.20;;;2.90;;
3407;SDS011;1717;50.240;8.406;2023-04-08T01:25:15;2.70;;;2.40;;
3407;SDS011;1717;50.240;8.406;2023-04-08T01:27:49;3.67;;;3.37;;
3407;SDS011;1717;50.240;8.406;2023-04-08T01:30:20;3.30;;;2.97;;
3407;SDS011;1717;50.240;8.406;2023-04-08T01:32:50;4.30;;;3.37;;
3407;SDS011;1717;50.240;8.406;2023-04-08T01:35:20;2.87;;;2.60;;
3407;SDS011;1717;50.240;8.406;2023-04-08T01:37:47;3.73;;;3.33;;
3407;SDS011;1717;50.240;8.406;2023-04-08T01:40:16;3.70;;;2.80;;
3407;SDS011;1717;50.240;8.406;2023-04-08T01:42:45;4.73;;;4.30;;
3407;SDS011;1717;50.240;8.406;2023-04-08T01:45:14;3.07;;;2.80;;
3407;SDS011;1717;50.240;8.406;2023-04-08T01:47:44;3.87;;;3.23;;
3407;SDS011;1717;50.240;8.406;2023-04-08T01:50:13;3.83;;;3.53;;
3407;SDS011;1717;50.240;8.406;2023-04-08T01:52:42;3.50;;;3.20;;
3407;SDS011;1717;50.240;8.406;2023-04-08T01:55:10;3.63;;;3.10;;
3407;SDS011;1717;50.240;8.406;2023-04-08T01:57:37;3.67;;;2.70;;
3407;SDS011;1717;50.240;8.406;2023-04-08T02:00:05;3.43;;;3.13;;
3407;SDS011;1717;50.240;8.406;2023-04-08T02:02:36;3.90;;;2.83;;
3407;SDS011;1717;50.240;8.406;2023-04-08T02:05:04;4.27;;;3.70;;
3407;SDS011;1717;50.240;8.406;2023-04-08T02:07:32;3.33;;;3.00;;
3407;SDS011;1717;50.240;8.406;2023-04-08T02:09:58;4.70;;;3.73;;
3407;SDS011;1717;50.240;8.406;2023-04-08T02:12:25;3.77;;;3.47;;
3407;SDS011;1717;50.240;8.406;2023-04-08T02:14:53;4.23;;;3.83;;
3407;SDS011;1717;50.240;8.406;2023-04-08T02:17:23;6.37;;;4.67;;
3407;SDS011;1717;50.240;8.406;2023-04-08T02:20:04;5.57;;;4.30;;
3407;SDS011;1717;50.240;8.406;2023-04-08T02:22:36;4.40;;;4.00;;
3407;SDS011;1717;50.240;8.406;2023-04-08T02:25:07;4.57;;;4.17;;
3407;SDS011;1717;50.240;8.406;2023-04-08T02:27:38;4.20;;;3.37;;
3407;SDS011;1717;50.240;8.406;2023-04-08T02:30:06;4.20;;;3.80;;
3407;SDS011;1717;50.240;8.406;2023-04-08T02:32:35;6.03;;;5.43;;
3407;SDS011;1717;50.240;8.406;2023-04-08T02:35:04;5.73;;;4.60;;
3407;SDS011;1717;50.240;8.406;2023-04-08T02:37:32;6.40;;;5.00;;
3407;SDS011;1717;50.240;8.406;2023-04-08T02:39:59;5.83;;;4.67;;
3407;SDS011;1717;50.240;8.406;2023-04-08T02:42:26;6.70;;;5.20;;
3407;SDS011;1717;50.240;8.406;2023-04-08T02:44:52;5.10;;;4.00;;
3407;SDS011;1717;50.240;8.406;2023-04-08T02:47:19;4.50;;;3.73;;
3407;SDS011;1717;50.240;8.406;2023-04-08T02:49:46;5.43;;;4.30;;
3407;SDS011;1717;50.240;8.406;2023-04-08T02:52:17;5.03;;;4.27;;
3407;SDS011;1717;50.240;8.406;2023-04-08T02:54:45;5.20;;;4.70;;
3407;SDS011;1717;50.240;8.406;2023-04-08T02:57:11;6.70;;;5.40;;
3407;SDS011;1717;50.240;8.406;2023-04-08T02:59:38;6.33;;;5.53;;
3407;SDS011;1717;50.240;8.406;2023-04-08T03:02:05;6.73;;;6.00;;
3407;SDS011;1717;50.240;8.406;2023-04-08T03:04:32;6.53;;;5.10;;
3407;SDS011;1717;50.240;8.406;2023-04-08T03:06:59;6.77;;;5.37;;
3407;SDS011;1717;50.240;8.406;2023-04-08T03:09:27;6.83;;;5.60;;
3407;SDS011;1717;50.240;8.406;2023-04-08T03:11:54;8.70;;;6.20;;
3407;SDS011;1717;50.240;8.406;2023-04-08T03:14:20;6.33;;;5.60;;
3407;SDS011;1717;50.240;8.406;2023-04-08T03:16:47;5.53;;;4.90;;
3407;SDS011;1717;50.240;8.406;2023-04-08T03:19:14;6.43;;;5.50;;
3407;SDS011;1717;50.240;8.406;2023-04-08T03:21:41;6.90;;;5.50;;
3407;SDS011;1717;50.240;8.406;2023-04-08T03:24:08;6.03;;;5.40;;
3407;SDS011;1717;50.240;8.406;2023-04-08T03:26:36;7.33;;;6.10;;
3407;SDS011;1717;50.240;8.406;2023-04-08T03:29:03;6.63;;;5.33;;
3407;SDS011;1717;50.240;8.406;2023-04-08T03:31:30;7.93;;;5.30;;
3407;SDS011;1717;50.240;8.406;2023-04-08T03:33:57;6.10;;;5.00;;
3407;SDS011;1717;50.240;8.406;2023-04-08T03:36:25;5.73;;;4.97;;
3407;SDS011;1717;50.240;8.406;2023-04-08T03:38:52;9.50;;;6.70;;
3407;SDS011;1717;50.240;8.406;2023-04-08T03:41:18;7.67;;;5.77;;
3407;SDS011;1717;50.240;8.406;2023-04-08T03:43:47;6.30;;;5.70;;
3407;SDS011;1717;50.240;8.406;2023-04-08T03:46:14;7.83;;;5.20;;
3407;SDS011;1717;50.240;8.406;2023-04-08T03:48:41;5.80;;;5.20;;
3407;SDS011;1717;50.240;8.406;2023-04-08T03:51:08;5.77;;;5.10;;
3407;SDS011;1717;50.240;8.406;2023-04-08T03:53:34;7.70;;;5.97;;
3407;SDS011;1717;50.240;8.406;2023-04-08T03:56:01;7.20;;;6.20;;
3407;SDS011;1717;50.240;8.406;2023-04-08T03:58:28;7.07;;;6.37;;
3407;SDS011;1717;50.240;8.406;2023-04-08T04:00:57;9.00;;;6.23;;
3407;SDS011;1717;50.240;8.406;2023-04-08T04:03:24;6.60;;;5.40;;
3407;SDS011;1717;50.240;8.406;2023-04-08T04:05:52;6.70;;;5.33;;
3407;SDS011;1717;50.240;8.406;2023-04-08T04:08:18;8.80;;;5.90;;
3407;SDS011;1717;50.240;8.406;2023-04-08T04:10:45;7.90;;;6.30;;
3407;SDS011;1717;50.240;8.406;2023-04-08T04:13:12;7.07;;;5.33;;
3407;SDS011;1717;50.240;8.406;2023-04-08T04:15:40;8.40;;;6.03;;
3407;SDS011;1717;50.240;8.406;2023-04-08T04:18:08;7.57;;;6.77;;
3407;SDS011;1717;50.240;8.406;2023-04-08T04:20:38;7.53;;;5.23;;
3407;SDS011;1717;50.240;8.406;2023-04-08T04:23:05;7.80;;;6.40;;
3407;SDS011;1717;50.240;8.406;2023-04-08T04:25:32;7.60;;;5.30;;
3407;SDS011;1717;50.240;8.406;2023-04-08T04:27:59;7.77;;;5.77;;
3407;SDS011;1717;50.240;8.406;2023-04-08T04:30:27;7.17;;;6.00;;
3407;SDS011;1717;50.240;8.406;2023-04-08T04:32:54;6.63;;;5.70;;
3407;SDS011;1717;50.240;8.406;2023-04-08T04:35:22;9.73;;;6.03;;
3407;SDS011;1717;50.240;8.406;2023-04-08T04:37:49;9.17;;;6.97;;
3407;SDS011;1717;50.240;8.406;2023-04-08T04:40:16;10.23;;;7.37;;
3407;SDS011;1717;50.240;8.406;2023-04-08T04:42:43;7.30;;;6.30;;
3407;SDS011;1717;50.240;8.406;2023-04-08T04:45:10;9.37;;;7.20;;
3407;SDS011;1717;50.240;8.406;2023-04-08T04:47:37;7.87;;;7.03;;
3407;SDS011;1717;50.240;8.406;2023-04-08T04:50:04;8.57;;;6.50;;
3407;SDS011;1717;50.240;8.406;2023-04-08T04:52:33;8.73;;;7.03;;
3407;SDS011;1717;50.240;8.406;2023-04-08T04:55:01;8.40;;;6.47;;
3407;SDS011;1717;50.240;8.406;2023-04-08T04:57:28;9.37;;;6.53;;
3407;SDS011;1717;50.240;8.406;2023-04-08T04:59:55;10.47;;;8.30;;
3407;SDS011;1717;50.240;8.406;2023-04-08T05:02:22;9.90;;;7.50;;
3407;SDS011;1717;50.240;8.406;2023-04-08T05:04:48;11.40;;;7.43;;
3407;SDS011;1717;50.240;8.406;2023-04-08T05:07:17;11.30;;;7.60;;
3407;SDS011;1717;50.240;8.406;2023-04-08T05:09:46;13.30;;;8.70;;
3407;SDS011;1717;50.240;8.406;2023-04-08T05:12:13;11.00;;;6.77;;
3407;SDS011;1717;50.240;8.406;2023-04-08T05:14:40;7.60;;;6.87;;
3407;SDS011;1717;50.240;8.406;2023-04-08T05:17:07;12.23;;;9.80;;
3407;SDS011;1717;50.240;8.406;2023-04-08T05:19:34;10.90;;;8.00;;
3407;SDS011;1717;50.240;8.406;2023-04-08T05:22:01;9.17;;;8.00;;
3407;SDS011;1717;50.240;8.406;2023-04-08T05:24:28;11.30;;;8.60;;
3407;SDS011;1717;50.240;8.406;2023-04-08T05:26:56;11.30;;;7.83;;
3407;SDS011;1717;50.240;8.406;2023-04-08T05:29:23;8.73;;;7.47;;
3407;SDS011;1717;50.240;8.406;2023-04-08T05:31:50;10.23;;;8.37;;
3407;SDS011;1717;50.240;8.406;2023-04-08T05:34:18;10.53;;;8.33;;
3407;SDS011;1717;50.240;8.406;2023-04-08T05:36:46;9.70;;;7.23;;
3407;SDS011;1717;50.240;8.406;2023-04-08T05:39:15;10.50;;;8.07;;
3407;SDS011;1717;50.240;8.406;2023-04-08T05:41:42;11.60;;;8.03;;
3407;SDS011;1717;50.240;8.406;2023-04-08T05:44:11;9.80;;;8.30;;
3407;SDS011;1717;50.240;8.406;2023-04-08T05:46:38;10.60;;;7.40;;
3407;SDS011;1717;50.240;8.406;2023-04-08T05:49:05;10.80;;;8.43;;
3407;SDS011;1717;50.240;8.406;2023-04-08T05:51:32;13.77;;;8.80;;
3407;SDS011;1717;50.240;8.406;2023-04-08T05:53:58;10.03;;;8.63;;
3407;SDS011;1717;50.240;8.406;2023-04-08T05:56:25;13.00;;;9.23;;
3407;SDS011;1717;50.240;8.406;2023-04-08T05:58:52;9.60;;;8.60;;
3407;SDS011;1717;50.240;8.406;2023-04-08T06:01:20;13.63;;;8.67;;
3407;SDS011;1717;50.240;8.406;2023-04-08T06:03:47;11.77;;;9.43;;
3407;SDS011;1717;50.240;8.406;2023-04-08T06:06:16;13.33;;;9.37;;
3407;SDS011;1717;50.240;8.406;2023-04-08T06:08:43;13.30;;;9.27;;
3407;SDS011;1717;50.240;8.406;2023-04-08T06:11:11;12.60;;;9.43;;
3407;SDS011;1717;50.240;8.406;2023-04-08T06:13:38;13.23;;;10.17;;
3407;SDS011;1717;50.240;8.406;2023-04-08T06:16:09;11.63;;;8.87;;
3407;SDS011;1717;50.240;8.406;2023-04-08T06:18:37;13.07;;;10.03;;
3407;SDS011;1717;50.240;8.406;2023-04-08T06:21:04;14.83;;;9.90;;
3407;SDS011;1717;50.240;8.406;2023-04-08T06:23:31;12.03;;;9.47;;
3407;SDS011;1717;50.240;8.406;2023-04-08T06:25:58;13.37;;;10.30;;
3407;SDS011;1717;50.240;8.406;2023-04-08T06:28:25;12.90;;;9.77;;
3407;SDS011;1717;50.240;8.406;2023-04-08T06:30:54;12.33;;;9.83;;
3407;SDS011;1717;50.240;8.406;2023-04-08T06:33:20;11.97;;;10.23;;
3407;SDS011;1717;50.240;8.406;2023-04-08T06:35:49;17.73;;;12.70;;
3407;SDS011;1717;50.240;8.406;2023-04-08T06:38:16;18.47;;;12.77;;
3407;SDS011;1717;50.240;8.406;2023-04-08T06:40:42;14.83;;;11.47;;
3407;SDS011;1717;50.240;8.406;2023-04-08T06:43:09;19.60;;;12.80;;
3407;SDS011;1717;50.240;8.406;2023-04-08T06:45:36;15.77;;;12.00;;
3407;SDS011;1717;50.240;8.406;2023-04-08T06:48:03;17.80;;;12.70;;
3407;SDS011;1717;50.240;8.406;2023-04-08T06:50:33;17.00;;;13.10;;
3407;SDS011;1717;50.240;8.406;2023-04-08T06:53:01;17.23;;;12.67;;
3407;SDS011;1717;50.240;8.406;2023-04-08T06:55:28;17.63;;;12.47;;
3407;SDS011;1717;50.240;8.406;2023-04-08T06:57:55;17.70;;;12.90;;
3407;SDS011;1717;50.240;8.406;2023-04-08T07:00:21;19.33;;;13.17;;
3407;SDS011;1717;50.240;8.406;2023-04-08T07:02:49;20.07;;;12.97;;
3407;SDS011;1717;50.240;8.406;2023-04-08T07:05:16;20.83;;;12.37;;
3407;SDS011;1717;50.240;8.406;2023-04-08T07:07:43;18.63;;;13.40;;
3407;SDS011;1717;50.240;8.406;2023-04-08T07:10:11;20.97;;;14.83;;
3407;SDS011;1717;50.240;8.406;2023-04-08T07:12:38;21.20;;;14.87;;
3407;SDS011;1717;50.240;8.406;2023-04-08T07:15:06;22.77;;;15.50;;
3407;SDS011;1717;50.240;8.406;2023-04-08T07:17:33;22.13;;;15.03;;
3407;SDS011;1717;50.240;8.406;2023-04-08T07:20:01;21.83;;;15.20;;
3407;SDS011;1717;50.240;8.406;2023-04-08T07:22:28;18.67;;;14.10;;
3407;SDS011;1717;50.240;8.406;2023-04-08T07:24:54;23.43;;;15.43;;
3407;SDS011;1717;50.240;8.406;2023-04-08T07:27:23;20.53;;;15.10;;
3407;SDS011;1717;50.240;8.406;2023-04-08T07:29:51;18.60;;;13.40;;
3407;SDS011;1717;50.240;8.406;2023-04-08T07:32:18;19.80;;;14.70;;
3407;SDS011;1717;50.240;8.406;2023-04-08T07:34:45;21.93;;;15.33;;
3407;SDS011;1717;50.240;8.406;2023-04-08T07:37:12;17.53;;;13.80;;
3407;SDS011;1717;50.240;8.406;2023-04-08T07:39:40;22.60;;;15.77;;
3407;SDS011;1717;50.240;8.406;2023-04-08T07:42:06;23.17;;;16.50;;
3407;SDS011;1717;50.240;8.406;2023-04-08T07:44:35;18.90;;;14.60;;
3407;SDS011;1717;50.240;8.406;2023-04-08T07:47:02;18.33;;;14.50;;
3407;SDS011;1717;50.240;8.406;2023-04-08T07:49:29;24.20;;;16.87;;
3407;SDS011;1717;50.240;8.406;2023-04-08T07:51:56;22.63;;;16.67;;
3407;SDS011;1717;50.240;8.406;2023-04-08T07:54:22;20.80;;;15.17;;
3407;SDS011;1717;50.240;8.406;2023-04-08T07:56:50;23.00;;;14.80;;
3407;SDS011;1717;50.240;8.406;2023-04-08T07:59:16;23.60;;;15.40;;
3407;SDS011;1717;50.240;8.406;2023-04-08T08:01:44;19.30;;;14.00;;
3407;SDS011;1717;50.240;8.406;2023-04-08T08:04:11;22.60;;;14.70;;
3407;SDS011;1717;50.240;8.406;2023-04-08T08:06:38;19.43;;;15.73;;
3407;SDS011;1717;50.240;8.406;2023-04-08T08:09:05;22.10;;;15.90;;
3407;SDS011;1717;50.240;8.406;2023-04-08T08:11:32;21.67;;;14.97;;
3407;SDS011;1717;50.240;8.406;2023-04-08T08:13:59;20.97;;;15.13;;
3407;SDS011;1717;50.240;8.406;2023-04-08T08:16:26;23.37;;;16.30;;
3407;SDS011;1717;50.240;8.406;2023-04-08T08:18:55;18.67;;;13.97;;
3407;SDS011;1717;50.240;8.406;2023-04-08T08:21:22;22.53;;;16.43;;
3407;SDS011;1717;50.240;8.406;2023-04-08T08:23:50;21.30;;;16.00;;
3407;SDS011;1717;50.240;8.406;2023-04-08T08:26:17;20.00;;;14.30;;
3407;SDS011;1717;50.240;8.406;2023-04-08T08:28:45;20.70;;;16.23;;
3407;SDS011;1717;50.240;8.406;2023-04-08T08:31:12;18.83;;;14.97;;
3407;SDS011;1717;50.240;8.406;2023-04-08T08:33:38;22.20;;;14.80;;
3407;SDS011;1717;50.240;8.406;2023-04-08T08:36:07;18.93;;;15.23;;
3407;SDS011;1717;50.240;8.406;2023-04-08T08:38:33;21.60;;;15.43;;
3407;SDS011;1717;50.240;8.406;2023-04-08T08:41:00;18.43;;;15.37;;
3407;SDS011;1717;50.240;8.406;2023-04-08T08:43:28;21.93;;;16.30;;
3407;SDS011;1717;50.240;8.406;2023-04-08T08:45:57;23.57;;;16.27;;
3407;SDS011;1717;50.240;8.406;2023-04-08T08:48:24;20.10;;;15.07;;
3407;SDS011;1717;50.240;8.406;2023-04-08T08:50:51;20.80;;;16.20;;
3407;SDS011;1717;50.240;8.406;2023-04-08T08:53:19;19.50;;;15.30;;
3407;SDS011;1717;50.240;8.406;2023-04-08T08:55:47;20.73;;;15.13;;
3407;SDS011;1717;50.240;8.406;2023-04-08T08:58:14;20.30;;;15.23;;
3407;SDS011;1717;50.240;8.406;2023-04-08T09:00:41;22.60;;;15.67;;
3407;SDS011;1717;50.240;8.406;2023-04-08T09:03:15;22.23;;;16.00;;
3407;SDS011;1717;50.240;8.406;2023-04-08T09:05:46;23.13;;;16.03;;
3407;SDS011;1717;50.240;8.406;2023-04-08T09:08:25;23.87;;;16.60;;
3407;SDS011;1717;50.240;8.406;2023-04-08T09:10:53;22.87;;;15.50;;
3407;SDS011;1717;50.240;8.406;2023-04-08T09:13:21;19.33;;;15.87;;
3407;SDS011;1717;50.240;8.406;2023-04-08T09:16:01;23.00;;;15.30;;
3407;SDS011;1717;50.240;8.406;2023-04-08T09:18:30;21.63;;;15.33;;
3407;SDS011;1717;50.240;8.406;2023-04-08T09:20:58;23.40;;;16.27;;
3407;SDS011;1717;50.240;8.406;2023-04-08T09:23:37;19.93;;;15.67;;
3407;SDS011;1717;50.240;8.406;2023-04-08T09:26:08;24.20;;;17.57;;
3407;SDS011;1717;50.240;8.406;2023-04-08T09:28:36;23.00;;;16.70;;
3407;SDS011;1717;50.240;8.406;2023-04-08T09:31:09;19.93;;;16.40;;
3407;SDS011;1717;50.240;8.406;2023-04-08T09:33:47;21.87;;;15.37;;
3407;SDS011;1717;50.240;8.406;2023-04-08T09:36:14;20.90;;;15.67;;
3407;SDS011;1717;50.240;8.406;2023-04-08T09:38:43;19.73;;;15.63;;
3407;SDS011;1717;50.240;8.406;2023-04-08T09:41:12;22.63;;;16.87;;
3407;SDS011;1717;50.240;8.406;2023-04-08T09:43:41;20.80;;;15.73;;
3407;SDS011;1717;50.240;8.406;2023-04-08T09:46:13;24.10;;;15.90;;
3407;SDS011;1717;50.240;8.406;2023-04-08T09:48:42;16.07;;;12.83;;
3407;SDS011;1717;50.240;8.406;2023-04-08T09:51:16;19.30;;;14.23;;
3407;SDS011;1717;50.240;8.406;2023-04-08T09:53:47;15.20;;;11.90;;
3407;SDS011;1717;50.240;8.406;2023-04-08T09:56:25;17.97;;;13.97;;
3407;SDS011;1717;50.240;8.406;2023-04-08T09:59:02;15.67;;;12.13;;
3407;SDS011;1717;50.240;8.406;2023-04-08T10:01:39;13.30;;;11.63;;
3407;SDS011;1717;50.240;8.406;2023-04-08T10:04:13;14.17;;;12.00;;
3407;SDS011;1717;50.240;8.406;2023-04-08T10:06:42;16.27;;;13.07;;
3407;SDS011;1717;50.240;8.406;2023-04-08T10:09:10;14.57;;;11.57;;
3407;SDS011;1717;50.240;8.406;2023-04-08T10:11:37;13.60;;;10.57;;
3407;SDS011;1717;50.240;8.406;2023-04-08T10:14:04;12.23;;;9.73;;
3407;SDS011;1717;50.240;8.406;2023-04-08T10:16:32;12.97;;;10.20;;
3407;SDS011;1717;50.240;8.406;2023-04-08T10:18:59;14.23;;;11.10;;
3407;SDS011;1717;50.240;8.406;2023-04-08T10:21:33;14.27;;;11.27;;
3407;SDS011;1717;50.240;8.406;2023-04-08T10:24:06;12.60;;;9.97;;
3407;SDS011;1717;50.240;8.406;2023-04-08T10:26:39;10.70;;;9.60;;
3407;SDS011;1717;50.240;8.406;2023-04-08T10:29:29;15.37;;;9.90;;
3407;SDS011;1717;50.240;8.406;2023-04-08T10:31:59;11.03;;;9.10;;
3407;SDS011;1717;50.240;8.406;2023-04-08T10:34:26;12.20;;;10.20;;
3407;SDS011;1717;50.240;8.406;2023-04-08T10:36:54;11.50;;;9.77;;
3407;SDS011;1717;50.240;8.406;2023-04-08T10:39:23;14.37;;;10.47;;
3407;SDS011;1717;50.240;8.406;2023-04-08T10:41:53;13.80;;;10.40;;
3407;SDS011;1717;50.240;8.406;2023-04-08T10:44:21;11.40;;;9.70;;
3407;SDS011;1717;50.240;8.406;2023-04-08T10:46:50;10.97;;;9.50;;
3407;SDS011;1717;50.240;8.406;2023-04-08T10:49:18;11.93;;;9.40;;
3407;SDS011;1717;50.240;8.406;2023-04-08T10:51:46;13.30;;;10.60;;
3407;SDS011;1717;50.240;8.406;2023-04-08T10:54:13;12.20;;;10.90;;
3407;SDS011;1717;50.240;8.406;2023-04-08T10:56:45;12.07;;;10.40;;
3407;SDS011;1717;50.240;8.406;2023-04-08T10:59:15;10.87;;;9.43;;
3407;SDS011;1717;50.240;8.406;2023-04-08T11:01:44;13.43;;;9.63;;
3407;SDS011;1717;50.240;8.406;2023-04-08T11:04:14;10.33;;;9.10;;
3407;SDS011;1717;50.240;8.406;2023-04-08T11:06:43;11.83;;;9.57;;
3407;SDS011;1717;50.240;8.406;2023-04-08T11:09:11;20.93;;;10.10;;
3407;SDS011;1717;50.240;8.406;2023-04-08T11:11:40;11.00;;;8.30;;
3407;SDS011;1717;50.240;8.406;2023-04-08T11:14:08;12.60;;;9.00;;
3407;SDS011;1717;50.240;8.406;2023-04-08T11:16:37;13.53;;;9.77;;
3407;SDS011;1717;50.240;8.406;2023-04-08T11:19:05;10.30;;;9.20;;
3407;SDS011;1717;50.240;8.406;2023-04-08T11:21:34;12.77;;;8.80;;
3407;SDS011;1717;50.240;8.406;2023-04-08T11:24:06;13.43;;;9.90;;
3407;SDS011;1717;50.240;8.406;2023-04-08T11:26:36;9.97;;;8.20;;
3407;SDS011;1717;50.240;8.406;2023-04-08T11:29:03;9.53;;;8.53;;
3407;SDS011;1717;50.240;8.406;2023-04-08T11:31:31;11.13;;;8.97;;
3407;SDS011;1717;50.240;8.406;2023-04-08T11:34:00;10.30;;;8.83;;
3407;SDS011;1717;50.240;8.406;2023-04-08T11:36:27;10.87;;;9.30;;
3407;SDS011;1717;50.240;8.406;2023-04-08T11:38:55;9.37;;;8.37;;
3407;SDS011;1717;50.240;8.406;2023-04-08T11:41:22;10.80;;;8.93;;
3407;SDS011;1717;50.240;8.406;2023-04-08T11:43:52;10.30;;;8.97;;
3407;SDS011;1717;50.240;8.406;2023-04-08T11:46:20;11.43;;;8.37;;
3407;SDS011;1717;50.240;8.406;2023-04-08T11:48:57;8.60;;;7.80;;
3407;SDS011;1717;50.240;8.406;2023-04-08T11:51:29;11.20;;;9.10;;
3407;SDS011;1717;50.240;8.406;2023-04-08T11:53:58;9.83;;;7.80;;
3407;SDS011;1717;50.240;8.406;2023-04-08T11:56:25;11.60;;;8.50;;
3407;SDS011;1717;50.240;8.406;2023-04-08T11:58:54;12.07;;;8.70;;
3407;SDS011;1717;50.240;8.406;2023-04-08T12:01:21;10.73;;;8.10;;
3407;SDS011;1717;50.240;8.406;2023-04-08T12:03:54;8.87;;;7.97;;
3407;SDS011;1717;50.240;8.406;2023-04-08T12:06:23;9.17;;;8.20;;
3407;SDS011;1717;50.240;8.406;2023-04-08T12:08:51;12.00;;;8.73;;
3407;SDS011;1717;50.240;8.406;2023-04-08T12:11:18;10.33;;;9.07;;
3407;SDS011;1717;50.240;8.406;2023-04-08T12:13:45;9.10;;;8.20;;
3407;SDS011;1717;50.240;8.406;2023-04-08T12:16:13;10.77;;;7.80;;
3407;SDS011;1717;50.240;8.406;2023-04-08T12:18:41;9.53;;;7.83;;
3407;SDS011;1717;50.240;8.406;2023-04-08T12:21:07;9.20;;;7.50;;
3407;SDS011;1717;50.240;8.406;2023-04-08T12:23:36;9.80;;;6.80;;
3407;SDS011;1717;50.240;8.406;2023-04-08T12:26:03;9.03;;;8.10;;
3407;SDS011;1717;50.240;8.406;2023-04-08T12:28:30;8.20;;;7.40;;
3407;SDS011;1717;50.240;8.406;2023-04-08T12:30:58;7.53;;;6.73;;
3407;SDS011;1717;50.240;8.406;2023-04-08T12:33:25;7.50;;;6.80;;
3407;SDS011;1717;50.240;8.406;2023-04-08T12:35:52;7.93;;;7.13;;
3407;SDS011;1717;50.240;8.406;2023-04-08T12:38:19;10.20;;;5.90;;
3407;SDS011;1717;50.240;8.406;2023-04-08T12:40:47;7.60;;;5.97;;
3407;SDS011;1717;50.240;8.406;2023-04-08T12:43:14;6.77;;;5.77;;
3407;SDS011;1717;50.240;8.406;2023-04-08T12:45:41;7.23;;;5.80;;
3407;SDS011;1717;50.240;8.406;2023-04-08T12:48:08;6.30;;;5.60;;
3407;SDS011;1717;50.240;8.406;2023-04-08T12:50:35;6.40;;;5.70;;
3407;SDS011;1717;50.240;8.406;2023-04-08T12:53:02;8.10;;;6.03;;
3407;SDS011;1717;50.240;8.406;2023-04-08T12:55:29;7.97;;;6.17;;
3407;SDS011;1717;50.240;8.406;2023-04-08T12:57:57;6.17;;;5.57;;
3407;SDS011;1717;50.240;8.406;2023-04-08T13:00:24;8.50;;;7.00;;
3407;SDS011;1717;50.240;8.406;2023-04-08T13:02:51;10.40;;;6.53;;
3407;SDS011;1717;50.240;8.406;2023-04-08T13:05:18;7.77;;;6.80;;
3407;SDS011;1717;50.240;8.406;2023-04-08T13:07:45;7.80;;;6.60;;
3407;SDS011;1717;50.240;8.406;2023-04-08T13:10:12;7.00;;;6.10;;
3407;SDS011;1717;50.240;8.406;2023-04-08T13:12:39;9.37;;;6.90;;
3407;SDS011;1717;50.240;8.406;2023-04-08T13:15:08;7.00;;;6.50;;
3407;SDS011;1717;50.240;8.406;2023-04-08T13:17:35;7.40;;;6.60;;
3407;SDS011;1717;50.240;8.406;2023-04-08T13:20:02;20.93;;;7.50;;
3407;SDS011;1717;50.240;8.406;2023-04-08T13:22:30;7.53;;;6.83;;
3407;SDS011;1717;50.240;8.406;2023-04-08T13:24:58;7.83;;;6.30;;
3407;SDS011;1717;50.240;8.406;2023-04-08T13:27:25;6.80;;;6.10;;
3407;SDS011;1717;50.240;8.406;2023-04-08T13:29:52;7.73;;;6.93;;
3407;SDS011;1717;50.240;8.406;2023-04-08T13:32:21;8.40;;;6.77;;
3407;SDS011;1717;50.240;8.406;2023-04-08T13:34:48;8.63;;;6.67;;
3407;SDS011;1717;50.240;8.406;2023-04-08T13:37:15;6.83;;;6.03;;
3407;SDS011;1717;50.240;8.406;2023-04-08T13:39:41;8.90;;;6.63;;
3407;SDS011;1717;50.240;8.406;2023-04-08T13:42:08;5.90;;;5.30;;
3407;SDS011;1717;50.240;8.406;2023-04-08T13:44:35;6.83;;;6.13;;
3407;SDS011;1717;50.240;8.406;2023-04-08T13:47:02;10.80;;;7.60;;
3407;SDS011;1717;50.240;8.406;2023-04-08T13:51:58;9.10;;;6.47;;
3407;SDS011;1717;50.240;8.406;2023-04-08T13:54:25;7.70;;;6.90;;
3407;SDS011;1717;50.240;8.406;2023-04-08T13:56:52;9.07;;;7.70;;
3407;SDS011;1717;50.240;8.406;2023-04-08T13:59:18;7.80;;;6.90;;
3407;SDS011;1717;50.240;8.406;2023-04-08T14:01:46;7.33;;;6.73;;
3407;SDS011;1717;50.240;8.406;2023-04-08T14:04:13;8.87;;;7.97;;
3407;SDS011;1717;50.240;8.406;2023-04-08T14:06:41;7.07;;;6.40;;
3407;SDS011;1717;50.240;8.406;2023-04-08T14:09:08;8.17;;;6.77;;
3407;SDS011;1717;50.240;8.406;2023-04-08T14:11:35;7.83;;;7.07;;
3407;SDS011;1717;50.240;8.406;2023-04-08T14:14:02;9.00;;;6.80;;
3407;SDS011;1717;50.240;8.406;2023-04-08T14:16:30;9.07;;;8.07;;
3407;SDS011;1717;50.240;8.406;2023-04-08T14:18:56;7.57;;;6.10;;
3407;SDS011;1717;50.240;8.406;2023-04-08T14:21:23;7.27;;;6.60;;
3407;SDS011;1717;50.240;8.406;2023-04-08T14:23:52;7.73;;;6.60;;
3407;SDS011;1717;50.240;8.406;2023-04-08T14:26:19;10.27;;;6.77;;
3407;SDS011;1717;50.240;8.406;2023-04-08T14:28:46;7.73;;;7.00;;
3407;SDS011;1717;50.240;8.406;2023-04-08T14:31:12;8.67;;;6.20;;
3407;SDS011;1717;50.240;8.406;2023-04-08T14:33:39;6.73;;;6.03;;
3407;SDS011;1717;50.240;8.406;2023-04-08T14:36:06;7.93;;;6.30;;
3407;SDS011;1717;50.240;8.406;2023-04-08T14:38:33;8.00;;;6.40;;
3407;SDS011;1717;50.240;8.406;2023-04-08T14:41:01;7.43;;;6.73;;
3407;SDS011;1717;50.240;8.406;2023-04-08T14:43:28;8.23;;;6.57;;
3407;SDS011;1717;50.240;8.406;2023-04-08T14:45:55;7.00;;;5.83;;
3407;SDS011;1717;50.240;8.406;2023-04-08T14:48:22;6.50;;;5.90;;
3407;SDS011;1717;50.240;8.406;2023-04-08T14:50:50;6.43;;;5.83;;
3407;SDS011;1717;50.240;8.406;2023-04-08T14:53:17;6.10;;;5.50;;
3407;SDS011;1717;50.240;8.406;2023-04-08T14:55:44;7.00;;;6.30;;
3407;SDS011;1717;50.240;8.406;2023-04-08T14:58:12;8.40;;;7.67;;
3407;SDS011;1717;50.240;8.406;2023-04-08T15:00:39;6.70;;;5.40;;
3407;SDS011;1717;50.240;8.406;2023-04-08T15:03:08;7.70;;;6.17;;
3407;SDS011;1717;50.240;8.406;2023-04-08T15:05:36;9.63;;;6.73;;
3407;SDS011;1717;50.240;8.406;2023-04-08T15:08:02;7.30;;;6.60;;
3407;SDS011;1717;50.240;8.406;2023-04-08T15:10:29;6.10;;;5.50;;
3407;SDS011;1717;50.240;8.406;2023-04-08T15:12:56;8.93;;;6.87;;